Time,TemperatureF,DewpointF,PressureIn,WindDirection,WindDirectionDegrees,WindSpeedMPH,WindSpeedGustMPH,Humidity,HourlyPrecipIn,Conditions,Clouds,dailyrainin,SoftwareType,DateUTC
2013-04-01 00:03:00,42.0,-99.9,-100.00,North,-999,-999.0,-999.0,-999,0.03,,,0.08,,2013-04-01 04:03:00,
2013-04-01 00:14:00,42.0,-99.9,-100.00,North,-999,-999.0,-999.0,-999,0.03,,,0.08,,2013-04-01 04:14:00,
2013-04-01 00:24:00,42.0,-99.9,-100.00,North,-999,-999.0,-999.0,-999,0.08,,,0.13,,2013-04-01 04:24:00,
2013-04-01 00:30:00,41.0,-99.9,-100.00,North,-999,-999.0,-999.0,-999,0.10,,,0.18,,2013-04-01 04:30:00,
2013-04-01 00:33:00,42.0,-99.9,-100.00,North,-999,-999.0,-999.0,-999,0.08,,,0.13,,2013-04-01 04:33:00,
2013-04-01 00:44:00,42.0,-99.9,-100.00,North,-999,-999.0,-999.0,-999,0.08,,,0.13,,2013-04-01 04:44:00,
2013-04-01 00:54:00,41.0,-99.9,-100.00,North,-999,-999.0,-999.0,-999,0.10,,,0.18,,2013-04-01 04:54:00,
2013-04-01 01:03:00,41.0,-99.9,-100.00,North,-999,-999.0,-999.0,-999,0.10,,,0.18,,2013-04-01 05:03:00,
2013-04-01 01:13:00,41.0,-99.9,-100.00,North,-999,-999.0,-999.0,-999,0.10,,,0.18,,2013-04-01 05:13:00,
2013-04-01 01:23:00,41.0,-99.9,-100.00,North,-999,-999.0,-999.0,-999,0.10,,,0.18,,2013-04-01 05:23:00,
2013-04-01 01:30:00,39.0,-99.9,-100.00,North,-999,-999.0,-999.0,-999,0.10,,,0.28,,2013-04-01 05:30:00,
2013-04-01 01:53:00,39.0,-99.9,-100.00,North,-999,-999.0,-999.0,-999,0.10,,,0.28,,2013-04-01 05:53:00,
2013-04-01 02:03:00,39.0,-99.9,-100.00,North,-999,-999.0,-999.0,-999,0.10,,,0.28,,2013-04-01 06:03:00,
2013-04-01 02:23:00,39.0,-99.9,-100.00,North,-999,-999.0,-999.0,-999,0.10,,,0.28,,2013-04-01 06:23:00,
2013-04-01 02:30:00,38.0,-99.9,-100.00,North,-999,-999.0,-999.0,-999,0.03,,,0.31,,2013-04-01 06:30:00,
2013-04-01 02:53:00,38.0,-99.9,-100.00,North,-999,-999.0,-999.0,-999,0.03,,,0.31,,2013-04-01 06:53:00,
2013-04-01 03:03:00,38.0,-99.9,-100.00,North,-999,-999.0,-999.0,-999,0.03,,,0.31,,2013-04-01 07:03:00,
2013-04-01 03:13:00,38.0,-99.9,-100.00,North,-999,-999.0,-999.0,-999,0.03,,,0.31,,2013-04-01 07:13:00,
2013-04-01 03:23:00,38.0,-99.9,-100.00,North,-999,-999.0,-999.0,-999,0.03,,,0.31,,2013-04-01 07:23:00,
2013-04-01 03:30:00,37.0,-99.9,-100.00,North,-999,-999.0,-999.0,-999,0.02,,,0.33,,2013-04-01 07:30:00,
2013-04-01 03:53:00,37.0,-99.9,-100.00,North,-999,-999.0,-999.0,-999,0.02,,,0.33,,2013-04-01 07:53:00,
2013-04-01 04:03:00,37.0,-99.9,-100.00,North,-999,-999.0,-999.0,-999,0.02,,,0.33,,2013-04-01 08:03:00,
2013-04-01 04:13:00,37.0,-99.9,-100.00,North,-999,-999.0,-999.0,-999,0.02,,,0.33,,2013-04-01 08:13:00,
2013-04-01 04:23:00,37.0,-99.9,-100.00,North,-999,-999.0,-999.0,-999,0.02,,,0.33,,2013-04-01 08:23:00,
2013-04-01 04:30:00,37.0,-99.9,-100.00,North,-999,-999.0,-999.0,-999,0.00,,,0.33,,2013-04-01 08:30:00,
2013-04-01 05:03:00,37.0,-99.9,-100.00,North,-999,-999.0,-999.0,-999,0.00,,,0.33,,2013-04-01 09:03:00,
2013-04-01 05:12:00,37.0,-99.9,-100.00,North,-999,-999.0,-999.0,-999,0.00,,,0.33,,2013-04-01 09:12:00,
2013-04-01 05:23:00,37.0,-99.9,-100.00,North,-999,-999.0,-999.0,-999,0.00,,,0.33,,2013-04-01 09:23:00,
2013-04-01 05:54:00,37.0,-99.9,-100.00,North,-999,-999.0,-999.0,-999,0.00,,,0.33,,2013-04-01 09:54:00,
2013-04-01 06:04:00,37.0,-99.9,-100.00,North,-999,-999.0,-999.0,-999,0.00,,,0.33,,2013-04-01 10:04:00,
2013-04-01 06:13:00,37.0,-99.9,-100.00,North,-999,-999.0,-999.0,-999,0.00,,,0.33,,2013-04-01 10:13:00,
2013-04-01 06:24:00,37.0,-99.9,-100.00,North,-999,-999.0,-999.0,-999,0.00,,,0.33,,2013-04-01 10:24:00,
2013-04-01 06:30:00,37.0,-99.9,-100.00,North,-999,-999.0,-999.0,-999,0.01,,,0.34,,2013-04-01 10:30:00,
2013-04-01 06:34:00,37.0,-99.9,-100.00,North,-999,-999.0,-999.0,-999,0.00,,,0.33,,2013-04-01 10:34:00,
2013-04-01 06:54:00,37.0,-99.9,-100.00,North,-999,-999.0,-999.0,-999,0.01,,,0.34,,2013-04-01 10:54:00,
2013-04-01 07:04:00,37.0,-99.9,-100.00,North,-999,-999.0,-999.0,-999,0.01,,,0.34,,2013-04-01 11:04:00,
2013-04-01 07:13:00,37.0,-99.9,-100.00,North,-999,-999.0,-999.0,-999,0.01,,,0.34,,2013-04-01 11:13:00,
2013-04-01 07:23:00,37.0,-99.9,-100.00,North,-999,-999.0,-999.0,-999,0.01,,,0.34,,2013-04-01 11:23:00,
2013-04-01 07:30:00,38.0,-99.9,-100.00,North,-999,-999.0,-999.0,-999,0.00,,,0.34,,2013-04-01 11:30:00,
2013-04-01 07:53:00,38.0,-99.9,-100.00,North,-999,-999.0,-999.0,-999,0.00,,,0.34,,2013-04-01 11:53:00,
2013-04-01 08:03:00,38.0,-99.9,-100.00,North,-999,-999.0,-999.0,-999,0.00,,,0.34,,2013-04-01 12:03:00,
2013-04-01 08:12:00,38.0,-99.9,-100.00,North,-999,-999.0,-999.0,-999,0.00,,,0.34,,2013-04-01 12:12:00,
2013-04-01 08:24:00,38.0,-99.9,-100.00,North,-999,-999.0,-999.0,-999,0.00,,,0.34,,2013-04-01 12:24:00,
2013-04-01 08:30:00,39.0,-99.9,-100.00,North,-999,-999.0,-999.0,-999,0.00,,,0.34,,2013-04-01 12:30:00,
2013-04-01 08:53:00,39.0,-99.9,-100.00,North,-999,-999.0,-999.0,-999,0.00,,,0.34,,2013-04-01 12:53:00,
2013-04-01 09:03:00,39.0,-99.9,-100.00,North,-999,-999.0,-999.0,-999,0.00,,,0.34,,2013-04-01 13:03:00,
2013-04-01 09:13:00,39.0,-99.9,-100.00,North,-999,-999.0,-999.0,-999,0.00,,,0.34,,2013-04-01 13:13:00,
2013-04-01 09:23:00,39.0,-99.9,-100.00,North,-999,-999.0,-999.0,-999,0.00,,,0.34,,2013-04-01 13:23:00,
2013-04-01 09:30:00,42.0,-99.9,-100.00,North,-999,-999.0,-999.0,-999,-99.99,,,-99.99,,2013-04-01 13:30:00,
2013-04-01 09:53:00,42.0,-99.9,-100.00,North,-999,-999.0,-999.0,-999,-99.99,,,-99.99,,2013-04-01 13:53:00,
2013-04-01 10:05:00,42.0,-99.9,-100.00,North,-999,-999.0,-999.0,-999,-99.99,,,-99.99,,2013-04-01 14:05:00,
2013-04-01 10:13:00,42.0,-99.9,-100.00,North,-999,-999.0,-999.0,-999,-99.99,,,-99.99,,2013-04-01 14:13:00,
2013-04-01 10:23:00,42.0,-99.9,-100.00,North,-999,-999.0,-999.0,-999,-99.99,,,-99.99,,2013-04-01 14:23:00,
2013-04-01 10:30:00,43.0,-99.9,-100.00,North,-999,-999.0,-999.0,-999,0.00,,,-99.99,,2013-04-01 14:30:00,
2013-04-01 10:53:00,43.0,-99.9,-100.00,North,-999,-999.0,-999.0,-999,0.00,,,-99.99,,2013-04-01 14:53:00,
2013-04-01 11:04:00,43.0,-99.9,-100.00,North,-999,-999.0,-999.0,-999,0.00,,,-99.99,,2013-04-01 15:04:00,
2013-04-01 11:13:00,43.0,-99.9,-100.00,North,-999,-999.0,-999.0,-999,0.00,,,-99.99,,2013-04-01 15:13:00,
2013-04-01 11:23:00,43.0,-99.9,-100.00,North,-999,-999.0,-999.0,-999,0.00,,,-99.99,,2013-04-01 15:23:00,
2013-04-01 11:54:00,49.0,-99.9,-100.00,North,-999,-999.0,-999.0,-999,0.00,,,-99.99,,2013-04-01 15:54:00,
2013-04-01 12:03:00,49.0,-99.9,-100.00,North,-999,-999.0,-999.0,-999,0.00,,,-99.99,,2013-04-01 16:03:00,
2013-04-01 12:13:00,49.0,-99.9,-100.00,North,-999,-999.0,-999.0,-999,0.00,,,-99.99,,2013-04-01 16:13:00,
2013-04-01 12:24:00,52.0,-99.9,-100.00,North,-999,-999.0,-999.0,-999,0.00,,,-99.99,,2013-04-01 16:24:00,
2013-04-01 12:34:00,52.0,-99.9,-100.00,North,-999,-999.0,-999.0,-999,0.00,,,-99.99,,2013-04-01 16:34:00,
2013-04-01 12:43:00,52.0,-99.9,-100.00,North,-999,-999.0,-999.0,-999,0.00,,,-99.99,,2013-04-01 16:43:00,
2013-04-01 12:53:00,53.0,-99.9,-100.00,North,-999,-999.0,-999.0,-999,0.00,,,-99.99,,2013-04-01 16:53:00,
2013-04-01 13:04:00,53.0,-99.9,-100.00,North,-999,-999.0,-999.0,-999,0.00,,,-99.99,,2013-04-01 17:04:00,
2013-04-01 13:13:00,53.0,-99.9,-100.00,North,-999,-999.0,-999.0,-999,0.00,,,-99.99,,2013-04-01 17:13:00,
2013-04-01 13:23:00,53.0,-99.9,-100.00,North,-999,-999.0,-999.0,-999,0.00,,,-99.99,,2013-04-01 17:23:00,
2013-04-01 13:30:00,54.0,-99.9,-100.00,North,-999,-999.0,-999.0,-999,0.00,,,-99.99,,2013-04-01 17:30:00,
2013-04-01 13:54:00,54.0,-99.9,-100.00,North,-999,-999.0,-999.0,-999,0.00,,,-99.99,,2013-04-01 17:54:00,
2013-04-01 14:03:00,54.0,-99.9,-100.00,North,-999,-999.0,-999.0,-999,0.00,,,-99.99,,2013-04-01 18:03:00,
2013-04-01 14:13:00,54.0,-99.9,-100.00,North,-999,-999.0,-999.0,-999,0.00,,,-99.99,,2013-04-01 18:13:00,
2013-04-01 14:22:00,54.0,-99.9,-100.00,North,-999,-999.0,-999.0,-999,0.00,,,-99.99,,2013-04-01 18:22:00,
2013-04-01 14:30:00,44.0,-99.9,-100.00,North,-999,-999.0,-999.0,-999,0.08,,,-99.99,,2013-04-01 18:30:00,
2013-04-01 15:04:00,44.0,-99.9,-100.00,North,-999,-999.0,-999.0,-999,0.08,,,-99.99,,2013-04-01 19:04:00,
2013-04-01 15:13:00,44.0,-99.9,-100.00,North,-999,-999.0,-999.0,-999,0.08,,,-99.99,,2013-04-01 19:13:00,
2013-04-01 15:23:00,44.0,-99.9,-100.00,North,-999,-999.0,-999.0,-999,0.08,,,-99.99,,2013-04-01 19:23:00,
2013-04-01 15:30:00,45.0,-99.9,-100.00,North,-999,-999.0,-999.0,-999,0.01,,,-99.99,,2013-04-01 19:30:00,
2013-04-01 15:53:00,45.0,-99.9,-100.00,North,-999,-999.0,-999.0,-999,0.01,,,-99.99,,2013-04-01 19:53:00,
2013-04-01 16:03:00,45.0,-99.9,-100.00,North,-999,-999.0,-999.0,-999,0.01,,,-99.99,,2013-04-01 20:03:00,
2013-04-01 16:13:00,45.0,-99.9,-100.00,North,-999,-999.0,-999.0,-999,0.01,,,-99.99,,2013-04-01 20:13:00,
2013-04-01 16:23:00,45.0,-99.9,-100.00,North,-999,-999.0,-999.0,-999,0.01,,,-99.99,,2013-04-01 20:23:00,
2013-04-01 16:30:00,43.0,-99.9,-100.00,North,-999,-999.0,-999.0,-999,0.00,,,-99.99,,2013-04-01 20:30:00,
2013-04-01 16:53:00,43.0,-99.9,-100.00,North,-999,-999.0,-999.0,-999,0.00,,,-99.99,,2013-04-01 20:53:00,
2013-04-01 17:12:00,43.0,-99.9,-100.00,North,-999,-999.0,-999.0,-999,0.00,,,-99.99,,2013-04-01 21:12:00,
2013-04-01 17:23:00,43.0,-99.9,-100.00,North,-999,-999.0,-999.0,-999,0.00,,,-99.99,,2013-04-01 21:23:00,
2013-04-01 17:53:00,41.0,-99.9,-100.00,North,-999,-999.0,-999.0,-999,0.00,,,-99.99,,2013-04-01 21:53:00,
2013-04-01 18:03:00,41.0,-99.9,-100.00,North,-999,-999.0,-999.0,-999,0.00,,,-99.99,,2013-04-01 22:03:00,
2013-04-01 18:23:00,41.0,-99.9,-100.00,North,-999,-999.0,-999.0,-999,0.00,,,-99.99,,2013-04-01 22:23:00,
2013-04-01 18:30:00,40.0,-99.9,-100.00,North,-999,-999.0,-999.0,-999,0.00,,,-99.99,,2013-04-01 22:30:00,
2013-04-01 18:33:00,41.0,-99.9,-100.00,North,-999,-999.0,-999.0,-999,0.00,,,-99.99,,2013-04-01 22:33:00,
2013-04-01 18:44:00,41.0,-99.9,-100.00,North,-999,-999.0,-999.0,-999,0.00,,,-99.99,,2013-04-01 22:44:00,
2013-04-01 18:53:00,40.0,-99.9,-100.00,North,-999,-999.0,-999.0,-999,0.00,,,-99.99,,2013-04-01 22:53:00,
2013-04-01 19:03:00,40.0,-99.9,-100.00,North,-999,-999.0,-999.0,-999,0.00,,,-99.99,,2013-04-01 23:03:00,
2013-04-01 19:12:00,40.0,-99.9,-100.00,North,-999,-999.0,-999.0,-999,0.00,,,-99.99,,2013-04-01 23:12:00,
2013-04-01 19:23:00,40.0,-99.9,-100.00,North,-999,-999.0,-999.0,-999,0.00,,,-99.99,,2013-04-01 23:23:00,
2013-04-01 19:30:00,38.0,-99.9,-100.00,North,-999,-999.0,-999.0,-999,0.00,,,-99.99,,2013-04-01 23:30:00,
2013-04-01 19:54:00,38.0,-99.9,-100.00,North,-999,-999.0,-999.0,-999,0.00,,,-99.99,,2013-04-01 23:54:00,
2013-04-01 20:13:00,38.0,-99.9,-100.00,North,-999,-999.0,-999.0,-999,0.00,,,-99.99,,2013-04-02 00:13:00,
2013-04-01 20:23:00,38.0,-99.9,-100.00,North,-999,-999.0,-999.0,-999,0.00,,,-99.99,,2013-04-02 00:23:00,
2013-04-01 20:30:00,36.0,-99.9,-100.00,North,-999,-999.0,-999.0,-999,0.00,,,-99.99,,2013-04-02 00:30:00,
2013-04-01 20:53:00,36.0,-99.9,-100.00,North,-999,-999.0,-999.0,-999,0.00,,,-99.99,,2013-04-02 00:53:00,
2013-04-01 21:03:00,36.0,-99.9,-100.00,North,-999,-999.0,-999.0,-999,0.00,,,-99.99,,2013-04-02 01:03:00,
2013-04-01 21:13:00,36.0,-99.9,-100.00,North,-999,-999.0,-999.0,-999,0.00,,,-99.99,,2013-04-02 01:13:00,
2013-04-01 21:23:00,36.0,-99.9,-100.00,North,-999,-999.0,-999.0,-999,0.00,,,-99.99,,2013-04-02 01:23:00,
2013-04-01 21:30:00,34.0,-99.9,-100.00,North,-999,-999.0,-999.0,-999,0.00,,,-99.99,,2013-04-02 01:30:00,
2013-04-01 22:04:00,34.0,-99.9,-100.00,North,-999,-999.0,-999.0,-999,0.00,,,-99.99,,2013-04-02 02:04:00,
2013-04-01 22:13:00,34.0,-99.9,-100.00,North,-999,-999.0,-999.0,-999,0.00,,,-99.99,,2013-04-02 02:13:00,
2013-04-01 22:23:00,34.0,-99.9,-100.00,North,-999,-999.0,-999.0,-999,0.00,,,-99.99,,2013-04-02 02:23:00,
2013-04-01 22:30:00,32.0,-99.9,-100.00,North,-999,-999.0,-999.0,-999,0.01,,,-99.99,,2013-04-02 02:30:00,
2013-04-01 22:53:00,32.0,-99.9,-100.00,North,-999,-999.0,-999.0,-999,0.01,,,-99.99,,2013-04-02 02:53:00,
2013-04-01 23:03:00,32.0,-99.9,-100.00,North,-999,-999.0,-999.0,-999,0.01,,,-99.99,,2013-04-02 03:03:00,
2013-04-01 23:13:00,32.0,-99.9,-100.00,North,-999,-999.0,-999.0,-999,0.01,,,-99.99,,2013-04-02 03:13:00,
2013-04-01 23:23:00,32.0,-99.9,-100.00,North,-999,-999.0,-999.0,-999,0.01,,,-99.99,,2013-04-02 03:23:00,
2013-04-01 23:54:00,31.0,-99.9,-100.00,North,-999,-999.0,-999.0,-999,0.00,,,-99.99,,2013-04-02 03:54:00,